sensor_id;sensor_type;location;lat;lon;timestamp;pressure;altitude;pressure_sealevel;temperature;humidity
21824;BME280;11074;48.596;9.238;2023-08-12T00:01:11;98513.88;;;22.18;77.00
21824;BME280;11074;48.596;9.238;2023-08-12T00:03:37;98524.94;;;22.30;76.44
21824;BME280;11074;48.596;9.238;2023-08-12T00:06:03;98516.13;;;22.16;76.26
21824;BME280;11074;48.596;9.238;2023-08-12T00:08:31;98518.97;;;21.94;76.80
21824;BME280;11074;48.596;9.238;2023-08-12T00:10:56;98516.56;;;22.01;77.18
21824;BME280;11074;48.596;9.238;2023-08-12T00:13:22;98512.75;;;22.11;76.63
21824;BME280;11074;48.596;9.238;2023-08-12T00:15:48;98506.47;;;22.02;76.80
21824;BME280;11074;48.596;9.238;2023-08-12T00:18:14;98503.78;;;22.10;76.91
21824;BME280;11074;48.596;9.238;2023-08-12T00:20:41;98504.41;;;22.16;76.75
21824;BME280;11074;48.596;9.238;2023-08-12T00:23:08;98498.97;;;22.16;75.97
21824;BME280;11074;48.596;9.238;2023-08-12T00:25:34;98495.94;;;22.09;76.00
21824;BME280;11074;48.596;9.238;2023-08-12T00:27:59;98487.91;;;21.95;76.59
21824;BME280;11074;48.596;9.238;2023-08-12T00:30:25;98490.63;;;21.95;77.26
21824;BME280;11074;48.596;9.238;2023-08-12T00:32:51;98481.41;;;21.83;77.84
21824;BME280;11074;48.596;9.238;2023-08-12T00:35:16;98484.81;;;21.88;77.37
21824;BME280;11074;48.596;9.238;2023-08-12T00:37:42;98489.63;;;21.91;77.14
21824;BME280;11074;48.596;9.238;2023-08-12T00:40:08;98491.53;;;21.82;77.93
21824;BME280;11074;48.596;9.238;2023-08-12T00:42:35;98489.00;;;21.94;77.91
21824;BME280;11074;48.596;9.238;2023-08-12T00:45:00;98489.31;;;22.01;77.85
21824;BME280;11074;48.596;9.238;2023-08-12T00:47:28;98475.88;;;22.05;78.02
21824;BME280;11074;48.596;9.238;2023-08-12T00:49:55;98479.88;;;22.07;78.04
21824;BME280;11074;48.596;9.238;2023-08-12T00:52:23;98480.69;;;21.99;78.78
21824;BME280;11074;48.596;9.238;2023-08-12T00:54:49;98478.75;;;22.00;78.52
21824;BME280;11074;48.596;9.238;2023-08-12T00:57:15;98478.75;;;22.00;78.90
21824;BME280;11074;48.596;9.238;2023-08-12T00:59:43;98480.19;;;21.97;78.81
21824;BME280;11074;48.596;9.238;2023-08-12T01:02:11;98479.25;;;22.02;78.91
21824;BME280;11074;48.596;9.238;2023-08-12T01:04:37;98478.59;;;22.05;78.69
21824;BME280;11074;48.596;9.238;2023-08-12T01:07:02;98474.59;;;22.02;78.93
21824;BME280;11074;48.596;9.238;2023-08-12T01:09:29;98476.22;;;22.03;78.78
21824;BME280;11074;48.596;9.238;2023-08-12T01:12:03;98474.78;;;22.06;79.07
21824;BME280;11074;48.596;9.238;2023-08-12T01:17:21;98474.59;;;22.02;78.93
21824;BME280;11074;48.596;9.238;2023-08-12T01:19:49;98467.88;;;22.00;78.96
21824;BME280;11074;48.596;9.238;2023-08-12T01:22:20;98458.91;;;21.99;78.86
21824;BME280;11074;48.596;9.238;2023-08-12T01:24:46;98453.94;;;21.93;78.88
21824;BME280;11074;48.596;9.238;2023-08-12T01:27:13;98453.59;;;21.94;78.89
21824;BME280;11074;48.596;9.238;2023-08-12T01:29:45;98453.13;;;21.92;79.10
21824;BME280;11074;48.596;9.238;2023-08-12T01:32:35;98452.31;;;21.92;78.99
21824;BME280;11074;48.596;9.238;2023-08-12T01:35:26;98446.72;;;21.88;79.25
21824;BME280;11074;48.596;9.238;2023-08-12T01:37:57;98453.91;;;21.84;79.35
21824;BME280;11074;48.596;9.238;2023-08-12T01:40:24;98450.19;;;21.80;79.38
21824;BME280;11074;48.596;9.238;2023-08-12T01:42:51;98455.47;;;21.77;79.48
21824;BME280;11074;48.596;9.238;2023-08-12T01:45:18;98449.81;;;21.56;80.68
21824;BME280;11074;48.596;9.238;2023-08-12T01:47:44;98444.22;;;21.52;80.65
21824;BME280;11074;48.596;9.238;2023-08-12T01:50:11;98430.94;;;21.59;80.59
21824;BME280;11074;48.596;9.238;2023-08-12T01:52:37;98439.28;;;21.63;80.28
21824;BME280;11074;48.596;9.238;2023-08-12T01:55:03;98431.41;;;21.61;80.20
21824;BME280;11074;48.596;9.238;2023-08-12T01:57:29;98428.56;;;21.58;80.46
21824;BME280;11074;48.596;9.238;2023-08-12T01:59:55;98437.50;;;21.58;80.56
21824;BME280;11074;48.596;9.238;2023-08-12T02:02:21;98439.44;;;21.58;80.48
21824;BME280;11074;48.596;9.238;2023-08-12T02:04:46;98435.91;;;21.57;80.48
21824;BME280;11074;48.596;9.238;2023-08-12T02:07:12;98444.06;;;21.57;80.63
21824;BME280;11074;48.596;9.238;2023-08-12T02:09:38;98439.72;;;21.56;80.34
21824;BME280;11074;48.596;9.238;2023-08-12T02:12:04;98445.97;;;21.57;80.34
21824;BME280;11074;48.596;9.238;2023-08-12T02:14:30;98443.09;;;21.53;80.62
21824;BME280;11074;48.596;9.238;2023-08-12T02:16:55;98438.59;;;21.49;80.81
21824;BME280;11074;48.596;9.238;2023-08-12T02:19:21;98434.59;;;21.46;81.14
21824;BME280;11074;48.596;9.238;2023-08-12T02:21:47;98436.34;;;21.51;80.83
21824;BME280;11074;48.596;9.238;2023-08-12T02:24:12;98437.63;;;21.53;80.72
21824;BME280;11074;48.596;9.238;2023-08-12T02:26:38;98433.50;;;21.47;81.00
21824;BME280;11074;48.596;9.238;2023-08-12T02:29:04;98434.91;;;21.45;80.97
21824;BME280;11074;48.596;9.238;2023-08-12T02:31:30;98432.97;;;21.45;80.96
21824;BME280;11074;48.596;9.238;2023-08-12T02:33:56;98427.22;;;21.38;81.40
21824;BME280;11074;48.596;9.238;2023-08-12T02:36:21;98426.53;;;21.33;81.86
21824;BME280;11074;48.596;9.238;2023-08-12T02:38:47;98422.72;;;21.34;81.78
21824;BME280;11074;48.596;9.238;2023-08-12T02:41:13;98426.03;;;21.22;82.10
21824;BME280;11074;48.596;9.238;2023-08-12T02:43:39;98423.28;;;21.13;82.65
21824;BME280;11074;48.596;9.238;2023-08-12T02:46:04;98419.31;;;21.20;82.40
21824;BME280;11074;48.596;9.238;2023-08-12T02:48:30;98427.44;;;21.11;82.68
21824;BME280;11074;48.596;9.238;2023-08-12T02:50:56;98414.63;;;21.11;83.26
21824;BME280;11074;48.596;9.238;2023-08-12T02:53:21;98411.47;;;21.18;82.95
21824;BME280;11074;48.596;9.238;2023-08-12T02:55:47;98408.25;;;21.16;82.69
21824;BME280;11074;48.596;9.238;2023-08-12T02:58:13;98398.47;;;21.06;83.24
21824;BME280;11074;48.596;9.238;2023-08-12T03:00:42;98405.38;;;21.12;82.85
21824;BME280;11074;48.596;9.238;2023-08-12T03:03:10;98406.13;;;21.04;83.31
21824;BME280;11074;48.596;9.238;2023-08-12T03:05:36;98408.09;;;21.12;82.73
21824;BME280;11074;48.596;9.238;2023-08-12T03:08:03;98399.44;;;21.10;83.05
21824;BME280;11074;48.596;9.238;2023-08-12T03:10:30;98399.44;;;21.10;83.06
21824;BME280;11074;48.596;9.238;2023-08-12T03:12:56;98402.09;;;21.02;83.38
21824;BME280;11074;48.596;9.238;2023-08-12T03:15:22;98398.75;;;21.05;83.39
21824;BME280;11074;48.596;9.238;2023-08-12T03:17:47;98394.31;;;21.09;83.12
21824;BME280;11074;48.596;9.238;2023-08-12T03:20:13;98394.66;;;21.07;82.92
21824;BME280;11074;48.596;9.238;2023-08-12T03:22:39;98390.97;;;21.12;83.26
21824;BME280;11074;48.596;9.238;2023-08-12T03:25:05;98387.22;;;20.99;83.58
21824;BME280;11074;48.596;9.238;2023-08-12T03:27:31;98394.22;;;20.92;83.63
21824;BME280;11074;48.596;9.238;2023-08-12T03:29:57;98394.91;;;21.06;83.21
21824;BME280;11074;48.596;9.238;2023-08-12T03:32:25;98394.09;;;21.05;82.91
21824;BME280;11074;48.596;9.238;2023-08-12T03:34:51;98397.25;;;20.90;84.30
21824;BME280;11074;48.596;9.238;2023-08-12T03:37:18;98388.91;;;20.87;84.26
21824;BME280;11074;48.596;9.238;2023-08-12T03:39:44;98398.88;;;21.00;83.47
21824;BME280;11074;48.596;9.238;2023-08-12T03:42:09;98394.44;;;21.04;83.03
21824;BME280;11074;48.596;9.238;2023-08-12T03:44:35;98397.16;;;21.04;83.37
21824;BME280;11074;48.596;9.238;2023-08-12T03:47:01;98388.66;;;21.05;82.87
21824;BME280;11074;48.596;9.238;2023-08-12T03:49:26;98385.94;;;20.97;83.43
21824;BME280;11074;48.596;9.238;2023-08-12T03:51:52;98382.56;;;21.00;83.30
21824;BME280;11074;48.596;9.238;2023-08-12T03:54:18;98383.84;;;21.02;83.20
21824;BME280;11074;48.596;9.238;2023-08-12T03:56:44;98385.28;;;21.00;83.54
21824;BME280;11074;48.596;9.238;2023-08-12T03:59:10;98384.13;;;20.92;83.95
21824;BME280;11074;48.596;9.238;2023-08-12T04:01:37;98383.41;;;20.70;85.68
21824;BME280;11074;48.596;9.238;2023-08-12T04:04:03;98387.28;;;20.77;85.18
21824;BME280;11074;48.596;9.238;2023-08-12T04:06:28;98391.41;;;20.75;85.46
21824;BME280;11074;48.596;9.238;2023-08-12T04:08:54;98388.03;;;20.69;86.04
21824;BME280;11074;48.596;9.238;2023-08-12T04:11:20;98394.81;;;20.80;85.10
21824;BME280;11074;48.596;9.238;2023-08-12T04:13:45;98397.06;;;20.87;84.82
21824;BME280;11074;48.596;9.238;2023-08-12T04:16:11;98394.94;;;20.75;85.24
21824;BME280;11074;48.596;9.238;2023-08-12T04:18:37;98396.59;;;20.85;84.45
21824;BME280;11074;48.596;9.238;2023-08-12T04:21:03;98398.19;;;20.86;84.67
21824;BME280;11074;48.596;9.238;2023-08-12T04:23:28;98392.84;;;20.72;85.78
21824;BME280;11074;48.596;9.238;2023-08-12T04:25:54;98392.53;;;20.74;85.68
21824;BME280;11074;48.596;9.238;2023-08-12T04:28:20;98392.38;;;20.70;85.56
21824;BME280;11074;48.596;9.238;2023-08-12T04:30:47;98394.94;;;20.75;85.15
21824;BME280;11074;48.596;9.238;2023-08-12T04:33:14;98396.41;;;20.81;84.65
21824;BME280;11074;48.596;9.238;2023-08-12T04:35:41;98397.53;;;20.80;84.73
21824;BME280;11074;48.596;9.238;2023-08-12T04:38:07;98392.44;;;20.87;84.51
21824;BME280;11074;48.596;9.238;2023-08-12T04:40:32;98399.31;;;20.85;84.55
21824;BME280;11074;48.596;9.238;2023-08-12T04:42:59;98402.16;;;20.80;85.48
21824;BME280;11074;48.596;9.238;2023-08-12T04:45:25;98410.94;;;20.77;85.71
21824;BME280;11074;48.596;9.238;2023-08-12T04:47:51;98401.00;;;20.72;86.39
21824;BME280;11074;48.596;9.238;2023-08-12T04:50:17;98398.84;;;20.61;86.43
21824;BME280;11074;48.596;9.238;2023-08-12T04:52:43;98388.59;;;20.58;86.54
21824;BME280;11074;48.596;9.238;2023-08-12T04:55:09;98397.06;;;20.56;86.86
21824;BME280;11074;48.596;9.238;2023-08-12T04:57:36;98390.53;;;20.57;87.00
21824;BME280;11074;48.596;9.238;2023-08-12T05:00:02;98387.31;;;20.55;87.25
21824;BME280;11074;48.596;9.238;2023-08-12T05:02:28;98391.84;;;20.68;85.75
21824;BME280;11074;48.596;9.238;2023-08-12T05:04:54;98402.38;;;20.61;86.79
21824;BME280;11074;48.596;9.238;2023-08-12T05:07:20;98402.88;;;20.63;87.26
21824;BME280;11074;48.596;9.238;2023-08-12T05:09:45;98385.75;;;20.63;87.53
21824;BME280;11074;48.596;9.238;2023-08-12T05:12:12;98366.63;;;20.68;87.53
21824;BME280;11074;48.596;9.238;2023-08-12T05:14:39;98377.13;;;20.61;88.23
21824;BME280;11074;48.596;9.238;2023-08-12T05:17:06;98382.41;;;20.66;87.51
21824;BME280;11074;48.596;9.238;2023-08-12T05:19:32;98409.50;;;20.79;87.33
21824;BME280;11074;48.596;9.238;2023-08-12T05:21:58;98403.59;;;20.77;87.83
21824;BME280;11074;48.596;9.238;2023-08-12T05:24:24;98403.25;;;20.79;86.92
21824;BME280;11074;48.596;9.238;2023-08-12T05:26:49;98402.69;;;20.90;86.32
21824;BME280;11074;48.596;9.238;2023-08-12T05:29:15;98399.97;;;20.90;86.14
21824;BME280;11074;48.596;9.238;2023-08-12T05:31:41;98403.16;;;20.92;85.87
21824;BME280;11074;48.596;9.238;2023-08-12T05:34:06;98394.72;;;20.94;86.69
21824;BME280;11074;48.596;9.238;2023-08-12T05:36:32;98393.59;;;20.95;86.76
21824;BME280;11074;48.596;9.238;2023-08-12T05:38:58;98388.19;;;21.03;85.44
21824;BME280;11074;48.596;9.238;2023-08-12T05:41:24;98398.25;;;21.03;85.69
21824;BME280;11074;48.596;9.238;2023-08-12T05:43:50;98392.00;;;21.02;85.92
21824;BME280;11074;48.596;9.238;2023-08-12T05:46:16;98397.50;;;21.11;85.76
21824;BME280;11074;48.596;9.238;2023-08-12T05:48:41;98402.03;;;21.16;85.20
21824;BME280;11074;48.596;9.238;2023-08-12T05:51:07;98412.91;;;21.24;85.07
21824;BME280;11074;48.596;9.238;2023-08-12T05:53:33;98411.19;;;21.28;84.90
21824;BME280;11074;48.596;9.238;2023-08-12T05:55:59;98418.88;;;21.26;84.42
21824;BME280;11074;48.596;9.238;2023-08-12T05:58:25;98405.91;;;21.23;85.62
21824;BME280;11074;48.596;9.238;2023-08-12T06:00:51;98405.25;;;21.26;85.09
21824;BME280;11074;48.596;9.238;2023-08-12T06:03:17;98401.41;;;21.27;85.40
21824;BME280;11074;48.596;9.238;2023-08-12T06:05:46;98406.38;;;21.25;85.58
21824;BME280;11074;48.596;9.238;2023-08-12T06:08:12;98401.88;;;21.21;87.09
21824;BME280;11074;48.596;9.238;2023-08-12T06:10:38;98404.75;;;21.24;86.28
21824;BME280;11074;48.596;9.238;2023-08-12T06:13:04;98410.03;;;21.29;85.95
21824;BME280;11074;48.596;9.238;2023-08-12T06:15:30;98408.31;;;21.33;85.51
21824;BME280;11074;48.596;9.238;2023-08-12T06:17:56;98404.97;;;21.36;86.17
21824;BME280;11074;48.596;9.238;2023-08-12T06:20:23;98402.72;;;21.38;85.38
21824;BME280;11074;48.596;9.238;2023-08-12T06:22:50;98387.38;;;21.42;85.49
21824;BME280;11074;48.596;9.238;2023-08-12T06:25:16;98381.28;;;21.45;85.21
21824;BME280;11074;48.596;9.238;2023-08-12T06:27:42;98384.66;;;21.51;84.61
21824;BME280;11074;48.596;9.238;2023-08-12T06:30:08;98388.19;;;21.51;85.46
21824;BME280;11074;48.596;9.238;2023-08-12T06:32:35;98390.47;;;21.58;84.47
21824;BME280;11074;48.596;9.238;2023-08-12T06:35:00;98392.03;;;21.59;84.25
21824;BME280;11074;48.596;9.238;2023-08-12T06:37:26;98394.47;;;21.60;83.79
21824;BME280;11074;48.596;9.238;2023-08-12T06:39:52;98389.16;;;21.64;83.93
21824;BME280;11074;48.596;9.238;2023-08-12T06:42:17;98383.44;;;21.74;83.61
21824;BME280;11074;48.596;9.238;2023-08-12T06:44:44;98383.41;;;21.83;82.95
21824;BME280;11074;48.596;9.238;2023-08-12T06:47:10;98376.72;;;21.89;82.88
21824;BME280;11074;48.596;9.238;2023-08-12T06:49:35;98379.63;;;21.92;82.73
21824;BME280;11074;48.596;9.238;2023-08-12T06:52:01;98375.94;;;21.97;82.19
21824;BME280;11074;48.596;9.238;2023-08-12T06:54:27;98372.41;;;22.05;83.99
21824;BME280;11074;48.596;9.238;2023-08-12T06:56:53;98376.09;;;22.09;82.02
21824;BME280;11074;48.596;9.238;2023-08-12T06:59:18;98375.94;;;22.14;82.77
21824;BME280;11074;48.596;9.238;2023-08-12T07:01:44;98372.88;;;22.15;81.33
21824;BME280;11074;48.596;9.238;2023-08-12T07:04:10;98378.50;;;22.19;83.57
21824;BME280;11074;48.596;9.238;2023-08-12T07:06:35;98378.78;;;22.17;80.81
21824;BME280;11074;48.596;9.238;2023-08-12T07:09:01;98368.88;;;22.21;81.10
21824;BME280;11074;48.596;9.238;2023-08-12T07:11:27;98371.25;;;22.23;80.93
21824;BME280;11074;48.596;9.238;2023-08-12T07:13:52;98379.91;;;22.25;80.76
21824;BME280;11074;48.596;9.238;2023-08-12T07:16:18;98368.38;;;22.28;80.13
21824;BME280;11074;48.596;9.238;2023-08-12T07:18:44;98367.06;;;22.34;79.86
21824;BME280;11074;48.596;9.238;2023-08-12T07:21:09;98362.59;;;22.38;79.28
21824;BME280;11074;48.596;9.238;2023-08-12T07:23:35;98356.31;;;22.46;80.32
21824;BME280;11074;48.596;9.238;2023-08-12T07:26:01;98356.63;;;22.53;77.34
21824;BME280;11074;48.596;9.238;2023-08-12T07:28:26;98357.91;;;22.56;75.65
21824;BME280;11074;48.596;9.238;2023-08-12T07:30:52;98343.75;;;22.62;78.95
21824;BME280;11074;48.596;9.238;2023-08-12T07:33:19;98350.19;;;22.66;78.91
21824;BME280;11074;48.596;9.238;2023-08-12T07:35:45;98353.06;;;22.70;76.33
21824;BME280;11074;48.596;9.238;2023-08-12T07:38:10;98355.00;;;22.69;75.25
21824;BME280;11074;48.596;9.238;2023-08-12T07:40:36;98357.53;;;22.74;76.24
21824;BME280;11074;48.596;9.238;2023-08-12T07:43:02;98361.53;;;22.77;74.94
21824;BME280;11074;48.596;9.238;2023-08-12T07:45:28;98361.34;;;22.82;73.26
21824;BME280;11074;48.596;9.238;2023-08-12T07:47:53;98352.19;;;22.86;72.98
21824;BME280;11074;48.596;9.238;2023-08-12T07:50:19;98350.69;;;22.98;77.94
21824;BME280;11074;48.596;9.238;2023-08-12T07:52:45;98349.06;;;23.05;73.98
21824;BME280;11074;48.596;9.238;2023-08-12T07:55:11;98340.22;;;23.08;71.94
21824;BME280;11074;48.596;9.238;2023-08-12T07:57:37;98343.41;;;23.10;70.18
21824;BME280;11074;48.596;9.238;2023-08-12T08:00:04;98348.22;;;23.13;70.00
21824;BME280;11074;48.596;9.238;2023-08-12T08:02:30;98346.09;;;23.19;71.31
21824;BME280;11074;48.596;9.238;2023-08-12T08:04:56;98343.38;;;23.19;69.85
21824;BME280;11074;48.596;9.238;2023-08-12T08:07:22;98337.72;;;23.24;77.11
21824;BME280;11074;48.596;9.238;2023-08-12T08:09:47;98343.28;;;23.36;72.74
21824;BME280;11074;48.596;9.238;2023-08-12T08:12:13;98346.75;;;23.45;69.16
21824;BME280;11074;48.596;9.238;2023-08-12T08:14:39;98348.44;;;23.58;70.37
21824;BME280;11074;48.596;9.238;2023-08-12T08:17:05;98343.59;;;23.64;69.20
21824;BME280;11074;48.596;9.238;2023-08-12T08:19:30;98344.84;;;23.66;70.32
21824;BME280;11074;48.596;9.238;2023-08-12T08:21:57;98341.81;;;23.68;68.22
21824;BME280;11074;48.596;9.238;2023-08-12T08:24:23;98340.78;;;23.72;68.70
21824;BME280;11074;48.596;9.238;2023-08-12T08:26:49;98337.06;;;23.77;66.85
21824;BME280;11074;48.596;9.238;2023-08-12T08:29:15;98340.28;;;23.79;68.72
21824;BME280;11074;48.596;9.238;2023-08-12T08:31:40;98349.06;;;23.84;66.18
21824;BME280;11074;48.596;9.238;2023-08-12T08:34:06;98342.34;;;23.82;66.05
21824;BME280;11074;48.596;9.238;2023-08-12T08:36:32;98338.25;;;23.88;67.59
21824;BME280;11074;48.596;9.238;2023-08-12T08:38:58;98346.25;;;23.93;65.02
21824;BME280;11074;48.596;9.238;2023-08-12T08:41:24;98346.97;;;24.02;65.28
21824;BME280;11074;48.596;9.238;2023-08-12T08:43:54;98340.19;;;24.08;66.73
21824;BME280;11074;48.596;9.238;2023-08-12T08:46:21;98343.03;;;24.11;65.15
21824;BME280;11074;48.596;9.238;2023-08-12T08:48:48;98342.84;;;24.17;64.83
21824;BME280;11074;48.596;9.238;2023-08-12T08:51:14;98341.38;;;24.19;65.25
21824;BME280;11074;48.596;9.238;2023-08-12T08:53:41;98341.50;;;24.23;65.51
21824;BME280;11074;48.596;9.238;2023-08-12T08:56:08;98346.97;;;24.23;64.05
21824;BME280;11074;48.596;9.238;2023-08-12T08:58:39;98350.16;;;24.25;65.04
21824;BME280;11074;48.596;9.238;2023-08-12T09:01:09;98356.34;;;24.34;64.26
21824;BME280;11074;48.596;9.238;2023-08-12T09:03:38;98348.81;;;24.31;63.34
21824;BME280;11074;48.596;9.238;2023-08-12T09:06:04;98354.16;;;24.27;63.75
21824;BME280;11074;48.596;9.238;2023-08-12T09:08:32;98350.84;;;24.22;63.58
21824;BME280;11074;48.596;9.238;2023-08-12T09:11:01;98356.09;;;24.27;63.89
21824;BME280;11074;48.596;9.238;2023-08-12T09:13:27;98345.41;;;24.34;64.01
21824;BME280;11074;48.596;9.238;2023-08-12T09:15:54;98347.47;;;24.37;63.40
21824;BME280;11074;48.596;9.238;2023-08-12T09:18:20;98347.13;;;24.38;63.52
21824;BME280;11074;48.596;9.238;2023-08-12T09:20:51;98345.31;;;24.42;63.07
21824;BME280;11074;48.596;9.238;2023-08-12T09:23:17;98347.84;;;24.47;66.05
21824;BME280;11074;48.596;9.238;2023-08-12T09:25:44;98346.59;;;24.57;67.68
21824;BME280;11074;48.596;9.238;2023-08-12T09:28:11;98349.91;;;24.62;64.53
21824;BME280;11074;48.596;9.238;2023-08-12T09:30:38;98331.81;;;24.70;62.97
21824;BME280;11074;48.596;9.238;2023-08-12T09:33:06;98343.81;;;24.78;62.33
21824;BME280;11074;48.596;9.238;2023-08-12T09:35:37;98340.16;;;24.86;62.58
21824;BME280;11074;48.596;9.238;2023-08-12T09:38:05;98335.06;;;24.96;62.95
21824;BME280;11074;48.596;9.238;2023-08-12T09:40:33;98332.53;;;25.15;62.16
21824;BME280;11074;48.596;9.238;2023-08-12T09:42:59;98333.47;;;25.19;64.98
21824;BME280;11074;48.596;9.238;2023-08-12T09:45:25;98330.94;;;25.26;60.92
21824;BME280;11074;48.596;9.238;2023-08-12T09:47:52;98329.47;;;25.17;60.72
21824;BME280;11074;48.596;9.238;2023-08-12T09:50:22;98322.75;;;25.14;61.17
21824;BME280;11074;48.596;9.238;2023-08-12T09:52:49;98312.03;;;25.09;60.44
21824;BME280;11074;48.596;9.238;2023-08-12T09:55:17;98303.50;;;24.99;60.68
21824;BME280;11074;48.596;9.238;2023-08-12T09:57:43;98302.66;;;25.10;62.77
21824;BME280;11074;48.596;9.238;2023-08-12T10:00:12;98306.19;;;25.23;60.04
21824;BME280;11074;48.596;9.238;2023-08-12T10:02:41;98299.91;;;25.35;60.42
21824;BME280;11074;48.596;9.238;2023-08-12T10:05:11;98298.16;;;25.42;60.71
21824;BME280;11074;48.596;9.238;2023-08-12T10:07:39;98291.47;;;25.52;60.04
21824;BME280;11074;48.596;9.238;2023-08-12T10:10:06;98284.25;;;25.59;59.65
21824;BME280;11074;48.596;9.238;2023-08-12T10:12:34;98282.53;;;25.43;59.22
21824;BME280;11074;48.596;9.238;2023-08-12T10:15:01;98288.50;;;25.33;59.78
21824;BME280;11074;48.596;9.238;2023-08-12T10:17:27;98279.94;;;25.34;61.79
21824;BME280;11074;48.596;9.238;2023-08-12T10:19:57;98287.34;;;25.33;60.36
21824;BME280;11074;48.596;9.238;2023-08-12T10:22:25;98279.94;;;25.34;60.48
21824;BME280;11074;48.596;9.238;2023-08-12T10:24:51;98280.19;;;25.29;62.49
21824;BME280;11074;48.596;9.238;2023-08-12T10:27:18;98278.31;;;25.45;60.84
21824;BME280;11074;48.596;9.238;2023-08-12T10:29:46;98280.94;;;25.42;59.67
21824;BME280;11074;48.596;9.238;2023-08-12T10:32:13;98287.69;;;25.32;59.69
21824;BME280;11074;48.596;9.238;2023-08-12T10:34:39;98288.38;;;25.29;59.91
21824;BME280;11074;48.596;9.238;2023-08-12T10:37:05;98285.56;;;25.25;59.47
21824;BME280;11074;48.596;9.238;2023-08-12T10:39:33;98289.19;;;25.29;60.41
21824;BME280;11074;48.596;9.238;2023-08-12T10:41:59;98288.16;;;25.46;66.23
21824;BME280;11074;48.596;9.238;2023-08-12T10:44:50;98297.47;;;25.45;59.89
21824;BME280;11074;48.596;9.238;2023-08-12T10:47:17;98303.88;;;25.37;61.32
21824;BME280;11074;48.596;9.238;2023-08-12T10:49:44;98311.84;;;25.42;60.72
21824;BME280;11074;48.596;9.238;2023-08-12T10:52:34;98313.59;;;25.35;60.56
21824;BME280;11074;48.596;9.238;2023-08-12T10:55:24;98307.53;;;25.41;60.31
21824;BME280;11074;48.596;9.238;2023-08-12T10:57:52;98294.53;;;25.50;65.78
21824;BME280;11074;48.596;9.238;2023-08-12T11:00:26;98295.41;;;25.66;59.40
21824;BME280;11074;48.596;9.238;2023-08-12T11:02:56;98289.59;;;25.68;59.19
21824;BME280;11074;48.596;9.238;2023-08-12T11:05:23;98298.84;;;26.19;63.97
21824;BME280;11074;48.596;9.238;2023-08-12T11:08:00;98293.59;;;26.41;59.58
21824;BME280;11074;48.596;9.238;2023-08-12T11:10:32;98281.97;;;26.17;58.44
21824;BME280;11074;48.596;9.238;2023-08-12T11:12:59;98275.63;;;26.44;60.04
21824;BME280;11074;48.596;9.238;2023-08-12T11:18:05;98276.06;;;26.30;58.64
21824;BME280;11074;48.596;9.238;2023-08-12T11:20:32;98283.00;;;26.40;58.93
21824;BME280;11074;48.596;9.238;2023-08-12T11:22:59;98271.22;;;26.39;59.20
21824;BME280;11074;48.596;9.238;2023-08-12T11:25:28;98263.59;;;26.48;57.94
21824;BME280;11074;48.596;9.238;2023-08-12T11:27:54;98271.22;;;26.55;59.42
21824;BME280;11074;48.596;9.238;2023-08-12T11:30:21;98270.16;;;26.60;58.38
21824;BME280;11074;48.596;9.238;2023-08-12T11:32:50;98261.59;;;26.61;59.72
21824;BME280;11074;48.596;9.238;2023-08-12T11:35:18;98263.53;;;26.61;56.49
21824;BME280;11074;48.596;9.238;2023-08-12T11:37:49;98252.72;;;26.52;59.76
21824;BME280;11074;48.596;9.238;2023-08-12T11:40:17;98248.13;;;26.87;59.83
21824;BME280;11074;48.596;9.238;2023-08-12T11:42:47;98243.88;;;26.74;57.29
21824;BME280;11074;48.596;9.238;2023-08-12T11:45:18;98241.22;;;26.62;56.30
21824;BME280;11074;48.596;9.238;2023-08-12T11:47:44;98242.19;;;26.70;58.07
21824;BME280;11074;48.596;9.238;2023-08-12T11:50:12;98232.38;;;26.84;57.21
21824;BME280;11074;48.596;9.238;2023-08-12T11:52:39;98212.88;;;27.24;54.85
21824;BME280;11074;48.596;9.238;2023-08-12T11:55:07;98211.59;;;27.37;56.10
21824;BME280;11074;48.596;9.238;2023-08-12T11:57:33;98212.50;;;27.26;54.46
21824;BME280;11074;48.596;9.238;2023-08-12T12:00:08;98213.59;;;27.21;54.09
21824;BME280;11074;48.596;9.238;2023-08-12T12:02:48;98213.88;;;27.16;54.38
21824;BME280;11074;48.596;9.238;2023-08-12T12:05:16;98235.03;;;27.16;54.81
21824;BME280;11074;48.596;9.238;2023-08-12T12:07:42;98240.03;;;27.45;54.49
21824;BME280;11074;48.596;9.238;2023-08-12T12:10:32;98246.75;;;27.66;54.04
21824;BME280;11074;48.596;9.238;2023-08-12T12:13:00;98257.22;;;27.80;53.44
21824;BME280;11074;48.596;9.238;2023-08-12T12:15:26;98275.31;;;27.62;54.18
21824;BME280;11074;48.596;9.238;2023-08-12T12:17:52;98275.38;;;27.46;53.55
21824;BME280;11074;48.596;9.238;2023-08-12T12:20:19;98273.38;;;27.28;54.16
21824;BME280;11074;48.596;9.238;2023-08-12T12:22:47;98272.34;;;27.17;55.35
21824;BME280;11074;48.596;9.238;2023-08-12T12:25:15;98284.19;;;27.21;54.56
21824;BME280;11074;48.596;9.238;2023-08-12T12:27:43;98292.06;;;27.22;55.21
21824;BME280;11074;48.596;9.238;2023-08-12T12:30:13;98294.53;;;27.27;54.91
21824;BME280;11074;48.596;9.238;2023-08-12T12:32:39;98291.38;;;27.09;55.58
21824;BME280;11074;48.596;9.238;2023-08-12T12:35:06;98298.34;;;26.88;55.87
21824;BME280;11074;48.596;9.238;2023-08-12T12:37:33;98313.47;;;26.82;56.63
21824;BME280;11074;48.596;9.238;2023-08-12T12:39:59;98313.34;;;26.94;56.17
21824;BME280;11074;48.596;9.238;2023-08-12T12:42:24;98324.78;;;26.80;55.64
21824;BME280;11074;48.596;9.238;2023-08-12T12:44:50;98344.22;;;26.75;56.50
21824;BME280;11074;48.596;9.238;2023-08-12T12:47:16;98369.34;;;26.62;57.14
21824;BME280;11074;48.596;9.238;2023-08-12T12:49:42;98404.97;;;26.46;62.26
21824;BME280;11074;48.596;9.238;2023-08-12T12:52:08;98430.53;;;26.22;72.85
21824;BME280;11074;48.596;9.238;2023-08-12T12:54:34;98468.72;;;26.15;71.81
21824;BME280;11074;48.596;9.238;2023-08-12T12:57:00;98473.78;;;25.77;79.16
21824;BME280;11074;48.596;9.238;2023-08-12T12:59:27;98469.69;;;25.59;76.17
21824;BME280;11074;48.596;9.238;2023-08-12T13:01:52;98471.56;;;25.34;78.24
21824;BME280;11074;48.596;9.238;2023-08-12T13:04:19;98459.00;;;25.09;81.74